Accueil
METAR-TAF:

METAR-TAF

Aéroports :

Chongqing, Chine

Aéroport international de Chongqing

latitude: 29-31N, longitude: 106-29E, altitude: 351 m

Observation

Le bulletin a été fait il y a 1 heure et 10 minutes, à 07:00 UTC
Vent 2 kt de direction variable
Température 31°C
Humidité 40%
Pression 1012 hPa
Visibilité 10 km ou plus
Quelques nuages à une hauteur de 3300 ft

METAR: ZUCK 270700Z VRB01MPS 9999 FEW033 31/16 Q1012 NOSIG

Heure: 16:10 (08:10 UTC)

Prévision

Le bulletin a été fait il y a 5 heures et 7 minutes, à 03:03 UTC
Prévision valable du 27 à 06 UTC au 28 à 06 UTC
Vent 6 kt de sud
Visibilité: 6000 m
Nuages épars à une hauteur de 5000 ft

TAF: ZUCK 270303Z 2706/2806 18003MPS 6000 SCT050 TX30/2707Z TN20/2722Z

Observations et prévisions météorologiques de plus de 4000 aéroports (messages METAR et TAF).

Les stations disponibles sont représentées par des disques jaunes et rouges sur la carte.

Passer la souris dessus pour voir le nom de la station.

Cliquer dessus pour voir les observations et prévisions météorologiques.

Pour changer de carte: cliquez sur les boutons verts avec une croix noire pour zoomer, sur le bouton vert avec un tiret pour effectuer un zoom arrière, ou sur les flèches vertes pour les cartes adjacentes.


METAR-TAF: